Time;durP1;ratioP1;P1;durP2;ratioP2;P2;SDS_P1;SDS_P2;PMS_P1;PMS_P2;Temp;Humidity;BMP_temperature;BMP_pressure;BME280_temperature;BME280_humidity;BME280_pressure;Samples;Min_cycle;Max_cycle;Signal;HPM_P1;HPM_P2
2022/05/22 00:02:14;;;;;;;3.97;3.60;;;;;;;;;;5103128;28;20217;-68
2022/05/22 00:04:40;;;;;;;3.95;3.63;;;;;;;;;;5102923;28;20199;-68
2022/05/22 00:07:07;;;;;;;4.97;3.55;;;;;;;;;;5102599;28;20208;-68
2022/05/22 00:09:35;;;;;;;3.95;3.65;;;;;;;;;;5102971;28;20543;-68
2022/05/22 00:12:02;;;;;;;4.35;3.95;;;;;;;;;;5102675;28;20557;-68
2022/05/22 00:14:28;;;;;;;5.40;4.30;;;;;;;;;;5102624;28;20203;-68
2022/05/22 00:16:55;;;;;;;5.30;4.90;;;;;;;;;;5102203;28;20211;-68
2022/05/22 00:19:22;;;;;;;6.50;5.07;;;;;;;;;;5102453;28;20196;-68
2022/05/22 00:21:49;;;;;;;6.97;6.22;;;;;;;;;;5102580;28;20203;-68
2022/05/22 00:24:17;;;;;;;6.68;5.97;;;;;;;;;;5102702;28;20196;-67
2022/05/22 00:26:44;;;;;;;8.73;7.05;;;;;;;;;;5102210;28;20203;-67
2022/05/22 00:29:10;;;;;;;7.90;7.10;;;;;;;;;;5102434;28;20372;-67
2022/05/22 00:31:37;;;;;;;6.78;6.22;;;;;;;;;;5102634;28;20286;-67
2022/05/22 00:34:03;;;;;;;8.15;6.22;;;;;;;;;;5102522;28;20215;-67
2022/05/22 00:36:29;;;;;;;7.78;6.97;;;;;;;;;;5102408;28;20503;-68
2022/05/22 00:38:56;;;;;;;7.43;6.72;;;;;;;;;;5102409;28;20202;-68
2022/05/22 00:41:22;;;;;;;8.18;5.35;;;;;;;;;;5102294;28;20200;-68
2022/05/22 00:43:50;;;;;;;7.40;5.60;;;;;;;;;;5103696;28;20499;-68
2022/05/22 00:46:18;;;;;;;5.47;5.05;;;;;;;;;;5106063;28;20304;-68
2022/05/22 00:48:45;;;;;;;5.25;4.75;;;;;;;;;;5106484;28;20274;-68
2022/05/22 00:51:13;;;;;;;4.63;4.28;;;;;;;;;;5106549;28;20196;-68
2022/05/22 00:53:40;;;;;;;4.47;4.07;;;;;;;;;;5106351;28;20215;-68
2022/05/22 00:56:08;;;;;;;5.43;3.83;;;;;;;;;;5106244;28;20195;-68
2022/05/22 00:58:36;;;;;;;4.28;3.97;;;;;;;;;;5106115;28;20458;-68
2022/05/22 01:01:04;;;;;;;5.13;3.60;;;;;;;;;;5106401;28;20204;-68
2022/05/22 01:03:31;;;;;;;3.70;3.10;;;;;;;;;;5106270;28;20200;-68
2022/05/22 01:06:01;;;;;;;3.08;2.95;;;;;;;;;;5105984;28;20222;-68
2022/05/22 01:08:27;;;;;;;4.53;2.88;;;;;;;;;;5106052;28;20495;-68
2022/05/22 01:10:55;;;;;;;4.72;2.90;;;;;;;;;;5105943;28;20200;-68
2022/05/22 01:13:22;;;;;;;2.47;2.38;;;;;;;;;;5105997;28;20226;-68
2022/05/22 01:15:49;;;;;;;2.95;2.75;;;;;;;;;;5105993;28;20210;-68
2022/05/22 01:18:17;;;;;;;2.80;2.50;;;;;;;;;;5105807;28;20191;-68
2022/05/22 01:20:45;;;;;;;2.85;2.60;;;;;;;;;;5105897;28;20199;-68
2022/05/22 01:23:13;;;;;;;2.78;2.42;;;;;;;;;;5105813;28;20195;-68
2022/05/22 01:25:39;;;;;;;3.30;2.60;;;;;;;;;;5106045;28;20199;-68
2022/05/22 01:28:06;;;;;;;4.50;2.50;;;;;;;;;;5105491;28;20203;-68
2022/05/22 01:30:32;;;;;;;2.53;2.42;;;;;;;;;;5105745;28;20203;-68
2022/05/22 01:32:59;;;;;;;4.38;2.50;;;;;;;;;;5105679;28;20409;-68
2022/05/22 01:35:27;;;;;;;2.42;2.03;;;;;;;;;;5105699;28;20196;-68
2022/05/22 01:37:54;;;;;;;2.80;2.60;;;;;;;;;;5105225;28;20204;-68
2022/05/22 01:40:22;;;;;;;4.68;2.75;;;;;;;;;;5105765;28;20270;-68
2022/05/22 01:42:49;;;;;;;3.00;2.80;;;;;;;;;;5105557;28;20206;-68
2022/05/22 01:45:17;;;;;;;4.28;2.35;;;;;;;;;;5105680;28;20376;-68
2022/05/22 01:47:43;;;;;;;2.40;2.20;;;;;;;;;;5104378;28;20199;-68
2022/05/22 01:50:10;;;;;;;4.00;2.40;;;;;;;;;;5105470;28;20196;-68
2022/05/22 01:52:36;;;;;;;2.88;2.38;;;;;;;;;;5105237;28;20223;-68
2022/05/22 01:55:03;;;;;;;2.13;2.03;;;;;;;;;;5104226;28;20217;-68
2022/05/22 01:57:30;;;;;;;2.83;2.63;;;;;;;;;;5104926;28;20199;-68
2022/05/22 01:59:57;;;;;;;6.03;2.85;;;;;;;;;;5104979;28;20202;-68
2022/05/22 02:02:24;;;;;;;2.50;2.40;;;;;;;;;;5105084;28;20249;-68
2022/05/22 02:04:50;;;;;;;2.95;2.40;;;;;;;;;;5104983;28;20573;-68
2022/05/22 02:10:00;;;;;;;4.03;2.30;;;;;;;;;;5104982;28;20642;-67
2022/05/22 02:12:27;;;;;;;2.75;2.33;;;;;;;;;;5104772;28;20203;-67
2022/05/22 02:14:54;;;;;;;3.88;2.38;;;;;;;;;;5104685;28;20211;-67
2022/05/22 02:17:21;;;;;;;3.05;2.70;;;;;;;;;;5104471;28;20241;-67
2022/05/22 02:19:47;;;;;;;2.75;2.55;;;;;;;;;;5104893;28;20196;-67
2022/05/22 02:22:13;;;;;;;6.18;2.75;;;;;;;;;;5104764;28;20199;-68
2022/05/22 02:24:39;;;;;;;2.30;2.13;;;;;;;;;;5104574;28;20199;-68
2022/05/22 02:27:07;;;;;;;4.75;2.80;;;;;;;;;;5104338;28;20515;-68
2022/05/22 02:29:33;;;;;;;2.58;2.28;;;;;;;;;;5104730;28;20403;-68
2022/05/22 02:32:01;;;;;;;2.83;2.47;;;;;;;;;;5104591;28;20196;-68
2022/05/22 02:34:27;;;;;;;2.90;2.70;;;;;;;;;;5104478;28;20525;-68
2022/05/22 02:36:53;;;;;;;2.70;2.50;;;;;;;;;;5104202;28;20195;-68
2022/05/22 02:39:19;;;;;;;3.53;2.45;;;;;;;;;;5104339;28;20196;-68
2022/05/22 02:41:46;;;;;;;2.70;2.50;;;;;;;;;;5104131;28;20202;-68
2022/05/22 02:44:12;;;;;;;7.25;2.50;;;;;;;;;;5104533;28;20192;-68
2022/05/22 02:46:41;;;;;;;2.67;2.47;;;;;;;;;;5104174;28;20211;-68
2022/05/22 02:49:08;;;;;;;2.67;2.28;;;;;;;;;;5104273;28;20202;-68
2022/05/22 02:51:35;;;;;;;3.00;2.80;;;;;;;;;;5104249;28;20395;-68
2022/05/22 02:54:01;;;;;;;2.88;2.58;;;;;;;;;;5104504;28;20223;-68
2022/05/22 02:56:28;;;;;;;2.50;2.28;;;;;;;;;;5103761;28;20203;-68
2022/05/22 02:58:54;;;;;;;3.20;2.55;;;;;;;;;;5104219;28;20242;-68
2022/05/22 03:01:20;;;;;;;3.15;2.85;;;;;;;;;;5104121;28;20207;-68
2022/05/22 03:03:47;;;;;;;2.72;2.55;;;;;;;;;;5103784;28;20200;-68
2022/05/22 03:08:58;;;;;;;2.50;2.40;;;;;;;;;;5103750;28;20191;-68
2022/05/22 03:11:25;;;;;;;2.50;2.33;;;;;;;;;;5103716;28;20203;-68
2022/05/22 03:13:51;;;;;;;2.38;2.28;;;;;;;;;;5103606;28;20243;-68
2022/05/22 03:16:18;;;;;;;2.55;2.35;;;;;;;;;;5103495;28;20196;-68
2022/05/22 03:18:44;;;;;;;5.13;2.90;;;;;;;;;;5103571;28;20195;-68
2022/05/22 03:21:12;;;;;;;2.53;2.10;;;;;;;;;;5103480;28;20202;-68
2022/05/22 03:23:40;;;;;;;3.85;2.45;;;;;;;;;;5103451;28;20199;-68
2022/05/22 03:26:06;;;;;;;2.70;2.47;;;;;;;;;;5103338;28;20233;-68
2022/05/22 03:28:32;;;;;;;3.10;2.78;;;;;;;;;;5103337;28;20210;-68
2022/05/22 03:30:59;;;;;;;2.97;2.33;;;;;;;;;;5103327;28;20195;-68
2022/05/22 03:33:25;;;;;;;4.07;2.35;;;;;;;;;;5103153;28;20240;-68
2022/05/22 03:35:51;;;;;;;2.33;2.13;;;;;;;;;;5103158;28;20515;-68
2022/05/22 03:38:17;;;;;;;3.35;2.30;;;;;;;;;;5103289;28;20488;-68
2022/05/22 03:40:46;;;;;;;2.40;2.30;;;;;;;;;;5103255;28;20522;-68
2022/05/22 03:43:13;;;;;;;2.60;2.40;;;;;;;;;;5103280;28;20386;-68
2022/05/22 03:45:39;;;;;;;2.58;2.38;;;;;;;;;;5103086;28;20429;-68
2022/05/22 03:48:06;;;;;;;2.45;2.22;;;;;;;;;;5102807;28;20499;-68
2022/05/22 03:50:32;;;;;;;2.20;2.10;;;;;;;;;;5102897;28;20527;-68
2022/05/22 03:52:58;;;;;;;2.45;2.35;;;;;;;;;;5103262;28;20199;-68
2022/05/22 03:55:25;;;;;;;3.50;2.47;;;;;;;;;;5103377;28;20218;-68
2022/05/22 03:57:52;;;;;;;2.72;2.10;;;;;;;;;;5102429;28;20433;-68
2022/05/22 04:00:20;;;;;;;2.95;2.10;;;;;;;;;;5102914;28;20202;-68
2022/05/22 04:02:46;;;;;;;2.20;2.05;;;;;;;;;;5102662;28;20203;-68
2022/05/22 04:05:13;;;;;;;2.42;2.22;;;;;;;;;;5102566;28;20230;-68
2022/05/22 04:07:39;;;;;;;2.42;2.28;;;;;;;;;;5102748;28;20208;-68
2022/05/22 04:10:06;;;;;;;2.20;2.10;;;;;;;;;;5102861;28;20195;-68
2022/05/22 04:12:32;;;;;;;2.85;2.22;;;;;;;;;;5102676;28;20199;-68
2022/05/22 04:14:59;;;;;;;2.30;2.20;;;;;;;;;;5102578;28;20227;-68
2022/05/22 04:17:26;;;;;;;3.58;2.53;;;;;;;;;;5101996;28;20502;-68
2022/05/22 04:19:52;;;;;;;3.10;2.90;;;;;;;;;;5102159;28;20200;-68
2022/05/22 04:22:18;;;;;;;2.70;2.50;;;;;;;;;;5102491;28;20256;-68
2022/05/22 04:27:29;;;;;;;2.38;2.17;;;;;;;;;;5102319;28;20247;-68
2022/05/22 04:29:55;;;;;;;5.45;2.30;;;;;;;;;;5102360;28;20206;-68
2022/05/22 04:32:23;;;;;;;2.22;2.13;;;;;;;;;;5102339;28;20198;-68
2022/05/22 04:34:49;;;;;;;3.58;2.35;;;;;;;;;;5102187;28;20262;-68
2022/05/22 04:37:15;;;;;;;2.42;2.33;;;;;;;;;;5102083;28;20202;-68
2022/05/22 04:39:41;;;;;;;2.58;2.38;;;;;;;;;;5102400;28;20516;-68
2022/05/22 04:42:08;;;;;;;4.88;2.90;;;;;;;;;;5102281;28;20429;-68
2022/05/22 04:44:34;;;;;;;3.70;2.55;;;;;;;;;;5102309;28;20523;-68
2022/05/22 04:47:01;;;;;;;3.95;2.67;;;;;;;;;;5102258;28;20202;-68
2022/05/22 04:49:28;;;;;;;3.75;2.63;;;;;;;;;;5102445;28;20422;-68
2022/05/22 04:51:57;;;;;;;3.40;2.50;;;;;;;;;;5102373;28;20195;-68
2022/05/22 04:54:24;;;;;;;2.88;2.65;;;;;;;;;;5102009;28;20215;-68
2022/05/22 04:56:50;;;;;;;3.10;2.80;;;;;;;;;;5101943;28;20196;-68
2022/05/22 04:59:16;;;;;;;3.72;3.05;;;;;;;;;;5102173;28;20270;-68
2022/05/22 05:01:43;;;;;;;2.88;2.67;;;;;;;;;;5102032;28;20196;-68
2022/05/22 05:04:11;;;;;;;2.88;2.65;;;;;;;;;;5102190;28;20211;-68
2022/05/22 05:06:39;;;;;;;2.78;2.60;;;;;;;;;;5101996;28;20224;-68
2022/05/22 05:09:05;;;;;;;3.58;2.58;;;;;;;;;;5101989;28;20202;-68
2022/05/22 05:11:32;;;;;;;3.33;2.50;;;;;;;;;;5102101;28;20200;-68
2022/05/22 05:13:58;;;;;;;4.30;3.30;;;;;;;;;;5102512;28;20247;-68
2022/05/22 05:16:24;;;;;;;2.78;2.58;;;;;;;;;;5101931;28;20207;-68
2022/05/22 05:18:51;;;;;;;5.72;2.60;;;;;;;;;;5101946;28;20215;-68
2022/05/22 05:21:18;;;;;;;3.85;2.70;;;;;;;;;;5102029;28;20202;-68
2022/05/22 05:23:46;;;;;;;2.75;2.55;;;;;;;;;;5102123;28;20192;-68
2022/05/22 05:26:12;;;;;;;2.63;2.53;;;;;;;;;;5101573;28;20200;-68
2022/05/22 05:28:38;;;;;;;2.85;2.65;;;;;;;;;;5102015;28;20495;-68
2022/05/22 05:31:04;;;;;;;5.90;3.42;;;;;;;;;;5105470;28;20425;-68
2022/05/22 05:33:32;;;;;;;6.03;2.53;;;;;;;;;;5105436;28;20220;-68
2022/05/22 05:35:58;;;;;;;3.63;3.25;;;;;;;;;;5105516;28;20199;-68
2022/05/22 05:38:24;;;;;;;2.53;2.38;;;;;;;;;;5105613;28;20208;-68
2022/05/22 05:40:52;;;;;;;2.42;2.17;;;;;;;;;;5105358;28;20200;-68
2022/05/22 05:43:19;;;;;;;3.03;2.75;;;;;;;;;;5105698;28;20196;-68
2022/05/22 05:45:46;;;;;;;2.42;2.33;;;;;;;;;;5105537;28;20241;-68
2022/05/22 05:48:12;;;;;;;2.78;2.63;;;;;;;;;;5105156;28;20218;-68
2022/05/22 05:50:38;;;;;;;4.93;3.03;;;;;;;;;;5105336;28;20203;-69
2022/05/22 05:53:05;;;;;;;4.25;3.58;;;;;;;;;;5105245;28;20195;-68
2022/05/22 05:55:31;;;;;;;2.50;2.30;;;;;;;;;;5105037;28;20238;-69
2022/05/22 05:58:00;;;;;;;2.90;2.67;;;;;;;;;;5105151;28;20241;-69
2022/05/22 06:00:26;;;;;;;2.70;2.60;;;;;;;;;;5105006;28;20196;-69
2022/05/22 06:02:53;;;;;;;2.85;2.65;;;;;;;;;;5105147;28;20204;-69
2022/05/22 06:05:19;;;;;;;3.17;2.42;;;;;;;;;;5105197;28;20211;-68
2022/05/22 06:07:49;;;;;;;3.10;2.08;;;;;;;;;;5104882;28;20195;-69
2022/05/22 06:10:15;;;;;;;3.15;2.30;;;;;;;;;;5105125;28;20476;-68
2022/05/22 06:12:41;;;;;;;2.80;2.60;;;;;;;;;;5105054;28;20202;-68
2022/05/22 06:15:09;;;;;;;4.03;2.55;;;;;;;;;;5105091;28;20216;-68
2022/05/22 06:17:36;;;;;;;2.45;2.22;;;;;;;;;;5104701;28;20203;-68
2022/05/22 06:20:05;;;;;;;3.95;2.53;;;;;;;;;;5104812;28;20383;-68
2022/05/22 06:22:34;;;;;;;2.45;2.05;;;;;;;;;;5104712;28;20196;-69
2022/05/22 06:25:00;;;;;;;3.20;2.60;;;;;;;;;;5104700;28;20196;-68
2022/05/22 06:27:27;;;;;;;2.22;2.00;;;;;;;;;;5104498;28;20203;-69
2022/05/22 06:29:53;;;;;;;2.50;2.30;;;;;;;;;;5104764;28;20275;-69
2022/05/22 06:32:21;;;;;;;3.35;2.47;;;;;;;;;;5104348;28;20192;-69
2022/05/22 06:34:48;;;;;;;5.57;2.60;;;;;;;;;;5104602;28;20222;-69
2022/05/22 06:37:15;;;;;;;3.92;2.30;;;;;;;;;;5104100;28;20279;-69
2022/05/22 06:39:54;;;;;;;2.92;2.40;;;;;;;;;;5104393;28;20196;-69
2022/05/22 06:42:22;;;;;;;2.97;2.08;;;;;;;;;;5103442;28;20195;-69
2022/05/22 06:44:55;;;;;;;5.72;2.70;;;;;;;;;;5104342;28;20196;-69
2022/05/22 06:47:23;;;;;;;4.15;2.30;;;;;;;;;;5103883;28;20252;-69
2022/05/22 06:49:50;;;;;;;4.43;2.47;;;;;;;;;;5104248;28;20230;-69
2022/05/22 06:52:16;;;;;;;3.38;2.50;;;;;;;;;;5104084;28;20219;-69
2022/05/22 06:54:43;;;;;;;3.85;2.40;;;;;;;;;;5104065;28;20544;-69
2022/05/22 06:57:10;;;;;;;2.90;2.70;;;;;;;;;;5103972;28;20196;-70
2022/05/22 06:59:36;;;;;;;3.03;2.40;;;;;;;;;;5104046;28;20203;-70
2022/05/22 07:02:04;;;;;;;3.08;2.00;;;;;;;;;;5103813;28;20203;-70
2022/05/22 07:04:32;;;;;;;2.60;1.92;;;;;;;;;;5103870;28;20199;-70
2022/05/22 07:06:59;;;;;;;2.22;2.10;;;;;;;;;;5103678;28;20199;-70
2022/05/22 07:09:25;;;;;;;3.78;2.20;;;;;;;;;;5103981;28;20196;-69
2022/05/22 07:11:54;;;;;;;2.15;2.05;;;;;;;;;;5103842;28;20210;-69
2022/05/22 07:14:20;;;;;;;3.13;2.00;;;;;;;;;;5103553;28;20422;-69
2022/05/22 07:16:47;;;;;;;4.65;2.20;;;;;;;;;;5103407;28;20498;-70
2022/05/22 07:19:13;;;;;;;6.72;2.13;;;;;;;;;;5103640;28;20241;-70
2022/05/22 07:21:41;;;;;;;2.22;2.03;;;;;;;;;;5103838;28;20199;-70
2022/05/22 07:24:07;;;;;;;2.10;1.83;;;;;;;;;;5103697;28;20422;-69
2022/05/22 07:26:34;;;;;;;2.35;1.88;;;;;;;;;;5103265;28;20202;-69
2022/05/22 07:29:01;;;;;;;2.03;1.75;;;;;;;;;;5103395;28;20421;-69
2022/05/22 07:31:28;;;;;;;1.70;1.52;;;;;;;;;;5103294;28;20215;-69
2022/05/22 07:33:55;;;;;;;3.17;1.58;;;;;;;;;;5103528;28;20202;-69
2022/05/22 07:36:21;;;;;;;5.65;1.55;;;;;;;;;;5103156;28;20196;-69
2022/05/22 07:38:48;;;;;;;3.17;1.52;;;;;;;;;;5103234;28;20508;-69
2022/05/22 07:41:15;;;;;;;3.03;1.50;;;;;;;;;;5102981;28;20279;-69
2022/05/22 07:43:41;;;;;;;4.00;2.50;;;;;;;;;;5102750;28;20196;-69
2022/05/22 07:46:09;;;;;;;2.03;1.92;;;;;;;;;;5102567;28;20368;-69
2022/05/22 07:48:35;;;;;;;1.75;1.40;;;;;;;;;;5102761;28;20353;-69
2022/05/22 07:51:03;;;;;;;2.78;2.00;;;;;;;;;;5102833;28;20222;-69
2022/05/22 07:53:30;;;;;;;2.30;1.15;;;;;;;;;;5102566;28;20206;-70
2022/05/22 07:55:57;;;;;;;1.90;1.42;;;;;;;;;;5102487;28;20224;-70
2022/05/22 07:58:25;;;;;;;2.38;1.20;;;;;;;;;;5102078;28;20196;-70
2022/05/22 08:00:52;;;;;;;1.73;1.60;;;;;;;;;;5102351;28;20199;-68
2022/05/22 08:03:18;;;;;;;4.35;1.48;;;;;;;;;;5096464;28;20491;-68
2022/05/22 08:05:45;;;;;;;1.90;1.45;;;;;;;;;;5092088;28;20370;-68
2022/05/22 08:08:11;;;;;;;1.50;1.30;;;;;;;;;;5092757;28;20515;-69
2022/05/22 08:10:38;;;;;;;2.30;1.50;;;;;;;;;;5084795;28;20203;-68
2022/05/22 08:13:06;;;;;;;3.05;1.45;;;;;;;;;;5081743;28;20200;-68
2022/05/22 08:15:33;;;;;;;1.80;1.13;;;;;;;;;;5081764;28;20224;-68
2022/05/22 08:18:00;;;;;;;3.15;1.48;;;;;;;;;;5081795;28;20197;-68
2022/05/22 08:20:27;;;;;;;2.90;1.50;;;;;;;;;;5081692;28;20203;-68
2022/05/22 08:22:55;;;;;;;2.03;1.45;;;;;;;;;;5081926;28;20207;-68
2022/05/22 08:25:22;;;;;;;3.25;1.40;;;;;;;;;;5081798;28;20188;-68
2022/05/22 08:27:48;;;;;;;3.42;1.40;;;;;;;;;;5081406;28;20495;-69
2022/05/22 08:30:17;;;;;;;1.50;1.10;;;;;;;;;;5081668;28;20200;-68
2022/05/22 08:32:44;;;;;;;2.78;1.00;;;;;;;;;;5081720;28;20383;-68
2022/05/22 08:35:12;;;;;;;0.98;0.93;;;;;;;;;;5081719;28;20216;-68
2022/05/22 08:37:38;;;;;;;1.75;1.38;;;;;;;;;;5081553;28;20283;-68
2022/05/22 08:40:06;;;;;;;1.00;0.80;;;;;;;;;;5081622;28;20242;-68
2022/05/22 08:42:34;;;;;;;2.42;0.75;;;;;;;;;;5082067;28;20492;-68
2022/05/22 08:45:00;;;;;;;1.23;1.10;;;;;;;;;;5082245;28;20216;-68
2022/05/22 08:47:32;;;;;;;5.03;0.90;;;;;;;;;;5082156;28;20235;-68
2022/05/22 08:50:00;;;;;;;1.13;0.88;;;;;;;;;;5082075;28;20202;-68
2022/05/22 08:52:29;;;;;;;0.82;0.80;;;;;;;;;;5082033;28;20197;-68
2022/05/22 08:54:58;;;;;;;3.72;1.00;;;;;;;;;;5082156;28;20223;-68
2022/05/22 09:00:11;;;;;;;3.33;2.92;;;;;;;;;;5081875;28;20196;-68
2022/05/22 09:02:42;;;;;;;3.60;1.45;;;;;;;;;;5081830;28;20270;-68
2022/05/22 09:05:09;;;;;;;0.90;0.90;;;;;;;;;;5083442;28;20275;-69
2022/05/22 09:07:43;;;;;;;0.70;0.70;;;;;;;;;;5085626;28;20196;-69
2022/05/22 09:10:12;;;;;;;1.95;0.80;;;;;;;;;;5085814;28;20197;-68
2022/05/22 09:12:47;;;;;;;4.05;0.75;;;;;;;;;;5086151;28;20495;-68
2022/05/22 09:15:15;;;;;;;1.27;0.88;;;;;;;;;;5085710;28;20227;-69
2022/05/22 09:17:46;;;;;;;1.02;0.60;;;;;;;;;;5085335;28;20192;-68
2022/05/22 09:20:16;;;;;;;2.50;0.63;;;;;;;;;;5085742;28;20401;-68
2022/05/22 09:22:45;;;;;;;2.13;1.77;;;;;;;;;;5085708;28;20231;-68
2022/05/22 09:25:16;;;;;;;2.50;2.33;;;;;;;;;;5085613;28;20200;-68
2022/05/22 09:27:47;;;;;;;1.80;1.35;;;;;;;;;;5083421;28;20196;-68
2022/05/22 09:30:17;;;;;;;1.05;0.90;;;;;;;;;;5093913;28;20222;-69
2022/05/22 09:33:01;;;;;;;1.60;1.27;;;;;;;;;;5092290;28;20226;-68
2022/05/22 09:35:32;;;;;;;2.38;1.02;;;;;;;;;;5096332;28;20231;-69
2022/05/22 09:38:06;;;;;;;0.82;0.80;;;;;;;;;;5101210;28;20203;-69
2022/05/22 09:40:35;;;;;;;1.48;1.38;;;;;;;;;;5105480;28;20229;-69
2022/05/22 09:43:20;;;;;;;1.45;0.77;;;;;;;;;;5105585;28;20195;-69
2022/05/22 09:45:51;;;;;;;2.17;0.75;;;;;;;;;;5105415;28;20191;-69
2022/05/22 09:48:40;;;;;;;0.80;0.68;;;;;;;;;;5104960;28;20196;-69
2022/05/22 09:51:11;;;;;;;3.97;2.00;;;;;;;;;;5105542;28;20250;-69
2022/05/22 09:53:49;;;;;;;2.10;0.80;;;;;;;;;;5105249;28;20199;-69
2022/05/22 09:56:20;;;;;;;1.50;0.75;;;;;;;;;;5104830;28;20221;-69
2022/05/22 09:58:56;;;;;;;1.92;1.40;;;;;;;;;;5105133;28;20202;-69
2022/05/22 10:01:24;;;;;;;1.00;0.70;;;;;;;;;;5104946;28;20203;-69
2022/05/22 10:03:55;;;;;;;1.02;0.75;;;;;;;;;;5104952;28;20203;-69
2022/05/22 10:06:27;;;;;;;2.70;0.85;;;;;;;;;;5104816;28;20215;-69
2022/05/22 10:08:58;;;;;;;3.13;0.75;;;;;;;;;;5104895;28;20191;-69
2022/05/22 10:11:26;;;;;;;2.05;0.70;;;;;;;;;;5105072;28;20196;-69
2022/05/22 10:14:05;;;;;;;5.25;0.70;;;;;;;;;;5105433;28;20195;-69
2022/05/22 10:16:37;;;;;;;0.68;0.68;;;;;;;;;;5103432;28;20522;-69
2022/05/22 10:19:09;;;;;;;0.90;0.90;;;;;;;;;;5104930;28;20199;-69
2022/05/22 10:21:40;;;;;;;1.17;1.10;;;;;;;;;;5104778;28;20266;-69
2022/05/22 10:24:17;;;;;;;1.15;1.02;;;;;;;;;;5104624;28;20247;-69
2022/05/22 10:26:49;;;;;;;3.13;0.85;;;;;;;;;;5104242;28;20288;-69
2022/05/22 10:29:18;;;;;;;1.10;0.63;;;;;;;;;;5104723;28;20495;-69
2022/05/22 10:31:49;;;;;;;1.98;0.80;;;;;;;;;;5104440;28;20199;-69
2022/05/22 10:34:23;;;;;;;0.98;0.73;;;;;;;;;;5104464;28;20199;-70
2022/05/22 10:36:55;;;;;;;0.95;0.75;;;;;;;;;;5105024;28;20223;-69
2022/05/22 10:39:21;;;;;;;1.70;0.70;;;;;;;;;;5104614;28;20202;-69
2022/05/22 10:44:36;;;;;;;0.70;0.70;;;;;;;;;;5104867;28;20240;-70
2022/05/22 10:47:03;;;;;;;1.00;0.80;;;;;;;;;;5103845;28;20411;-69
2022/05/22 10:49:37;;;;;;;2.00;1.02;;;;;;;;;;5104333;28;20491;-69
2022/05/22 10:52:05;;;;;;;1.40;0.82;;;;;;;;;;5104286;28;20202;-70
2022/05/22 10:54:33;;;;;;;0.70;0.70;;;;;;;;;;5104284;28;20201;-69
2022/05/22 10:57:08;;;;;;;2.63;0.85;;;;;;;;;;5103848;28;20223;-69
2022/05/22 10:59:34;;;;;;;1.90;0.93;;;;;;;;;;5103901;28;20195;-69
2022/05/22 11:02:04;;;;;;;2.50;1.25;;;;;;;;;;5104090;28;20199;-69
2022/05/22 11:04:34;;;;;;;1.02;0.98;;;;;;;;;;5103761;28;20210;-70
2022/05/22 11:07:02;;;;;;;0.95;0.70;;;;;;;;;;5103624;28;20191;-70
2022/05/22 11:09:30;;;;;;;2.38;0.93;;;;;;;;;;5103934;28;20195;-69
2022/05/22 11:12:04;;;;;;;1.30;0.82;;;;;;;;;;5103659;28;20209;-69
2022/05/22 11:14:33;;;;;;;0.98;0.90;;;;;;;;;;5103797;28;20199;-69
2022/05/22 11:17:07;;;;;;;2.42;1.00;;;;;;;;;;5103467;28;20219;-70
2022/05/22 11:19:34;;;;;;;2.60;0.77;;;;;;;;;;5103662;28;20209;-69
2022/05/22 11:22:06;;;;;;;2.30;0.93;;;;;;;;;;5103687;28;20209;-69
2022/05/22 11:24:37;;;;;;;1.85;0.90;;;;;;;;;;5103586;28;20218;-69
2022/05/22 11:27:09;;;;;;;1.67;0.90;;;;;;;;;;5103291;28;20191;-69
2022/05/22 11:29:43;;;;;;;1.40;0.80;;;;;;;;;;5103542;28;20195;-70
2022/05/22 11:32:14;;;;;;;1.90;0.70;;;;;;;;;;5103531;28;20195;-69
2022/05/22 11:34:51;;;;;;;1.05;0.80;;;;;;;;;;5103402;28;20199;-69
2022/05/22 11:37:22;;;;;;;2.67;1.08;;;;;;;;;;5103253;28;20222;-70
2022/05/22 11:39:59;;;;;;;1.00;1.00;;;;;;;;;;5103387;28;20202;-70
2022/05/22 11:42:27;;;;;;;1.00;1.00;;;;;;;;;;5103242;28;20265;-70
2022/05/22 11:44:59;;;;;;;1.85;0.90;;;;;;;;;;5103008;28;20196;-70
2022/05/22 11:47:35;;;;;;;1.60;0.90;;;;;;;;;;5102868;28;20199;-70
2022/05/22 11:50:06;;;;;;;1.55;0.77;;;;;;;;;;5103313;28;20228;-69
2022/05/22 11:52:56;;;;;;;3.40;0.93;;;;;;;;;;5103241;28;20199;-69
2022/05/22 11:55:29;;;;;;;1.40;1.00;;;;;;;;;;5102858;28;20218;-69
2022/05/22 11:58:07;;;;;;;1.42;0.90;;;;;;;;;;5102499;28;20202;-70
2022/05/22 12:00:36;;;;;;;2.47;0.85;;;;;;;;;;5103002;28;20290;-70
2022/05/22 12:03:11;;;;;;;1.90;0.82;;;;;;;;;;5102858;28;20203;-70
2022/05/22 12:05:44;;;;;;;0.70;0.70;;;;;;;;;;5102822;28;20440;-70
2022/05/22 12:08:24;;;;;;;3.20;0.80;;;;;;;;;;5102455;28;20195;-70
2022/05/22 12:10:56;;;;;;;0.80;0.70;;;;;;;;;;5102804;28;20202;-70
2022/05/22 12:13:27;;;;;;;3.20;1.05;;;;;;;;;;5102783;28;20202;-70
2022/05/22 12:15:58;;;;;;;3.05;0.90;;;;;;;;;;5102455;28;20241;-70
2022/05/22 12:18:33;;;;;;;0.68;0.68;;;;;;;;;;5102486;28;20195;-70
2022/05/22 12:21:03;;;;;;;0.80;0.80;;;;;;;;;;5102572;28;20210;-70
2022/05/22 12:23:32;;;;;;;1.77;1.00;;;;;;;;;;5102731;28;20196;-70
2022/05/22 12:26:00;;;;;;;0.82;0.80;;;;;;;;;;5102232;28;20191;-70
2022/05/22 12:28:31;;;;;;;0.88;0.77;;;;;;;;;;5102546;28;20498;-69
2022/05/22 12:30:58;;;;;;;0.70;0.70;;;;;;;;;;5102790;28;20184;-69
2022/05/22 12:33:28;;;;;;;4.60;0.80;;;;;;;;;;5102534;28;20494;-70
2022/05/22 12:35:55;;;;;;;0.60;0.60;;;;;;;;;;5102236;28;20223;-70
2022/05/22 12:38:21;;;;;;;1.15;1.05;;;;;;;;;;5102202;28;20270;-70
2022/05/22 12:40:49;;;;;;;1.30;0.90;;;;;;;;;;5101637;28;20195;-70
2022/05/22 12:43:18;;;;;;;1.20;1.10;;;;;;;;;;5102229;28;20495;-70
2022/05/22 12:45:47;;;;;;;0.80;0.80;;;;;;;;;;5102046;28;20400;-70
2022/05/22 12:48:15;;;;;;;0.93;0.93;;;;;;;;;;5101802;28;20206;-70
2022/05/22 12:50:46;;;;;;;1.05;0.90;;;;;;;;;;5101958;28;20399;-70
2022/05/22 12:53:17;;;;;;;2.13;0.85;;;;;;;;;;5101754;28;20195;-70
2022/05/22 12:55:43;;;;;;;0.90;0.90;;;;;;;;;;5101671;28;20194;-70
2022/05/22 12:58:26;;;;;;;1.67;0.70;;;;;;;;;;5101559;28;20198;-70
2022/05/22 13:00:55;;;;;;;1.05;0.85;;;;;;;;;;5101978;28;20195;-70
2022/05/22 13:03:23;;;;;;;0.70;0.70;;;;;;;;;;5101553;28;20219;-70
2022/05/22 13:05:56;;;;;;;0.93;0.80;;;;;;;;;;5101544;28;20215;-70
2022/05/22 13:08:25;;;;;;;2.60;0.70;;;;;;;;;;5101760;28;20203;-70
2022/05/22 13:10:53;;;;;;;1.15;0.80;;;;;;;;;;5102134;28;20199;-70
2022/05/22 13:13:24;;;;;;;1.23;0.80;;;;;;;;;;5102040;28;20393;-70
2022/05/22 13:15:55;;;;;;;0.80;0.80;;;;;;;;;;5101839;28;20195;-70
2022/05/22 13:18:22;;;;;;;0.95;0.80;;;;;;;;;;5101412;28;20200;-70
2022/05/22 13:20:54;;;;;;;0.80;0.68;;;;;;;;;;5101650;28;20491;-70
2022/05/22 13:23:34;;;;;;;1.38;0.93;;;;;;;;;;5101416;28;20199;-70
2022/05/22 13:26:01;;;;;;;1.20;0.80;;;;;;;;;;5101602;28;20364;-70
2022/05/22 13:28:29;;;;;;;1.52;0.80;;;;;;;;;;5101666;28;20198;-70
2022/05/22 13:30:58;;;;;;;0.88;0.80;;;;;;;;;;5101774;28;20266;-70
2022/05/22 13:33:26;;;;;;;2.05;1.10;;;;;;;;;;5101609;28;20199;-70
2022/05/22 13:35:55;;;;;;;0.75;0.70;;;;;;;;;;5101465;28;20195;-70
2022/05/22 13:38:22;;;;;;;2.10;0.90;;;;;;;;;;5101264;28;20196;-69
2022/05/22 13:40:52;;;;;;;0.73;0.73;;;;;;;;;;5101848;28;20195;-69
2022/05/22 13:43:51;;;;;;;1.50;1.13;;;;;;;;;;5101398;28;20196;-69
2022/05/22 13:46:41;;;;;;;1.02;0.70;;;;;;;;;;5101193;28;20196;-69
2022/05/22 13:49:18;;;;;;;1.40;0.88;;;;;;;;;;5101361;28;20199;-69
2022/05/22 13:54:39;;;;;;;0.90;0.82;;;;;;;;;;5105046;28;20252;-69
2022/05/22 13:57:09;;;;;;;3.13;0.90;;;;;;;;;;5104571;28;20461;-69
2022/05/22 13:59:37;;;;;;;1.85;1.20;;;;;;;;;;5104921;28;20198;-69
2022/05/22 14:02:05;;;;;;;1.02;0.80;;;;;;;;;;5104859;28;20202;-69
2022/05/22 14:04:33;;;;;;;3.10;0.90;;;;;;;;;;5104610;28;20207;-69
2022/05/22 14:07:05;;;;;;;1.38;0.70;;;;;;;;;;5104489;28;20198;-69
2022/05/22 14:09:33;;;;;;;1.00;0.60;;;;;;;;;;5104887;28;20230;-69
2022/05/22 14:12:00;;;;;;;1.77;0.93;;;;;;;;;;5104884;28;20195;-69
2022/05/22 14:14:27;;;;;;;0.90;0.90;;;;;;;;;;5104973;28;20215;-69
2022/05/22 14:16:56;;;;;;;0.88;0.73;;;;;;;;;;5104270;28;20400;-69
2022/05/22 14:19:25;;;;;;;3.75;0.90;;;;;;;;;;5104412;28;20304;-69
2022/05/22 14:21:53;;;;;;;0.65;0.65;;;;;;;;;;5104442;28;20206;-69
2022/05/22 14:27:06;;;;;;;0.93;0.65;;;;;;;;;;5104081;28;20190;-69
2022/05/22 14:29:32;;;;;;;1.17;0.50;;;;;;;;;;5104283;28;20233;-69
2022/05/22 14:31:58;;;;;;;1.15;0.95;;;;;;;;;;5104233;28;20241;-69
2022/05/22 14:34:26;;;;;;;0.90;0.88;;;;;;;;;;5104197;28;20414;-69
2022/05/22 14:36:55;;;;;;;0.60;0.60;;;;;;;;;;5103962;28;20286;-69
2022/05/22 14:39:23;;;;;;;0.82;0.63;;;;;;;;;;5104408;28;20416;-69
2022/05/22 14:41:50;;;;;;;1.75;0.85;;;;;;;;;;5104088;28;20199;-69
2022/05/22 14:44:19;;;;;;;1.33;0.80;;;;;;;;;;5104196;28;20424;-69
2022/05/22 14:46:49;;;;;;;0.80;0.80;;;;;;;;;;5103810;28;20191;-69
2022/05/22 14:49:17;;;;;;;2.13;0.82;;;;;;;;;;5104442;28;20207;-69
2022/05/22 14:51:47;;;;;;;1.20;0.63;;;;;;;;;;5104181;28;20200;-69
2022/05/22 14:54:16;;;;;;;0.95;0.90;;;;;;;;;;5103875;28;20195;-69
2022/05/22 14:56:44;;;;;;;1.90;0.88;;;;;;;;;;5103526;28;20211;-69
2022/05/22 14:59:13;;;;;;;2.08;1.00;;;;;;;;;;5104109;28;20328;-69
2022/05/22 15:01:42;;;;;;;0.80;0.80;;;;;;;;;;5103713;28;20203;-69
2022/05/22 15:04:12;;;;;;;1.10;1.00;;;;;;;;;;5103278;28;20278;-69
2022/05/22 15:06:45;;;;;;;1.00;0.90;;;;;;;;;;5103353;28;20317;-69
2022/05/22 15:09:11;;;;;;;3.28;0.88;;;;;;;;;;5103712;28;20203;-69
2022/05/22 15:11:41;;;;;;;1.25;1.15;;;;;;;;;;5103437;28;20196;-69